AAL5A KASE-KEKO
Flight info
| Callsign | AAL5A |
|---|---|
| Flight time | N/A |
| Altitude | 32000 |
| Route | LINDZ1 LINDZ RIL MTU KNOLE BVL LWL/N0307F160 V465 ELROD |
| Aircraft | E45X/M-SABDFGRW/S |
Departure
| Time | 2026-04-11 01:12 |
|---|---|
| Airport | Aspen-Pitkin County Airport (Sardy Field) (KASE) |
Arrival
| Time | N/A |
|---|---|
| Airport | Elko Regional Airport (KEKO) |
| Time | Latitude | Longitude | Altitude | Speed | Heading |
|---|---|---|---|---|---|
| 2026-04-11 01:05 | 39.21861 | -106.86563 | 7784 ft | 0 kts | 71° |
| 2026-04-11 01:07 | 39.21859 | -106.86535 | 7786 ft | 7 kts | 117° |
| 2026-04-11 01:08 | 39.21783 | -106.86501 | 7791 ft | 15 kts | 166° |
| 2026-04-11 01:08 | 39.21692 | -106.86464 | 7797 ft | 11 kts | 159° |
| 2026-04-11 01:08 | 39.21633 | -106.86435 | 7801 ft | 7 kts | 159° |
| 2026-04-11 01:08 | 39.21579 | -106.86408 | 7805 ft | 10 kts | 159° |
| 2026-04-11 01:09 | 39.21381 | -106.86314 | 7816 ft | 15 kts | 159° |
| 2026-04-11 01:09 | 39.21294 | -106.86273 | 7821 ft | 11 kts | 160° |
| 2026-04-11 01:09 | 39.21241 | -106.86250 | 7824 ft | 1 kts | 166° |
| 2026-04-11 01:10 | 39.21230 | -106.86248 | 7824 ft | 5 kts | 175° |
| 2026-04-11 01:10 | 39.21175 | -106.86306 | 7823 ft | 14 kts | 258° |
| 2026-04-11 01:10 | 39.21196 | -106.86351 | 7820 ft | 0 kts | 334° |
| 2026-04-11 01:10 | 39.21197 | -106.86352 | 7820 ft | 4 kts | 335° |
| 2026-04-11 01:11 | 39.21474 | -106.86489 | 7804 ft | 79 kts | 340° |
| 2026-04-11 01:11 | 39.22212 | -106.86843 | 7753 ft | 142 kts | 340° |
| 2026-04-11 01:11 | 39.23256 | -106.87348 | 7836 ft | 165 kts | 342° |
| 2026-04-11 01:11 | 39.24317 | -106.87839 | 8227 ft | 167 kts | 342° |
| 2026-04-11 01:12 | 39.25426 | -106.88440 | 8494 ft | 184 kts | 339° |
| 2026-04-11 01:12 | 39.26646 | -106.89127 | 8882 ft | 199 kts | 336° |
| 2026-04-11 01:12 | 39.27965 | -106.89957 | 9224 ft | 223 kts | 332° |
| 2026-04-11 01:12 | 39.29156 | -106.91370 | 9643 ft | 242 kts | 301° |
| 2026-04-11 01:13 | 39.29832 | -106.93488 | 9747 ft | 277 kts | 281° |
| 2026-04-11 01:13 | 39.30272 | -106.95963 | 10100 ft | 292 kts | 281° |
| 2026-04-11 01:13 | 39.30745 | -106.98550 | 10685 ft | 296 kts | 281° |
| 2026-04-11 01:13 | 39.31211 | -107.01128 | 11186 ft | 303 kts | 281° |
| 2026-04-11 01:14 | 39.31706 | -107.03809 | 11656 ft | 311 kts | 281° |
| 2026-04-11 01:14 | 39.32267 | -107.06534 | 12068 ft | 322 kts | 288° |
| 2026-04-11 01:14 | 39.33489 | -107.09013 | 12543 ft | 332 kts | 308° |
| 2026-04-11 01:14 | 39.34998 | -107.11240 | 13118 ft | 332 kts | 308° |
| 2026-04-11 01:15 | 39.36544 | -107.13478 | 13653 ft | 335 kts | 308° |
| 2026-04-11 01:15 | 39.38068 | -107.15748 | 14152 ft | 335 kts | 300° |
| 2026-04-11 01:15 | 39.38932 | -107.18445 | 14623 ft | 327 kts | 276° |
| 2026-04-11 01:15 | 39.38831 | -107.21326 | 15106 ft | 323 kts | 254° |
| 2026-04-11 01:16 | 39.38240 | -107.24134 | 15662 ft | 323 kts | 252° |
| 2026-04-11 01:16 | 39.37656 | -107.26903 | 16195 ft | 324 kts | 252° |
| 2026-04-11 01:16 | 39.37071 | -107.29710 | 16722 ft | 324 kts | 252° |
| 2026-04-11 01:16 | 39.36488 | -107.32534 | 17213 ft | 326 kts | 252° |
| 2026-04-11 01:17 | 39.35932 | -107.35372 | 17662 ft | 331 kts | 257° |
| 2026-04-11 01:17 | 39.36039 | -107.38354 | 18105 ft | 342 kts | 281° |
| 2026-04-11 01:17 | 39.37074 | -107.41116 | 18638 ft | 348 kts | 298° |
| 2026-04-11 01:17 | 39.38402 | -107.43767 | 19169 ft | 349 kts | 299° |
| 2026-04-11 01:18 | 39.39735 | -107.46357 | 19707 ft | 348 kts | 299° |
| 2026-04-11 01:18 | 39.41064 | -107.48943 | 20255 ft | 347 kts | 299° |
| 2026-04-11 01:18 | 39.42381 | -107.51510 | 20774 ft | 346 kts | 299° |
| 2026-04-11 01:18 | 39.43718 | -107.54117 | 21310 ft | 345 kts | 299° |